createdAt,value
2023-03-29T00:01:35.036Z,8.40
2023-03-29T00:06:48.110Z,9.30
2023-03-29T00:11:55.751Z,14.50
2023-03-29T00:17:03.776Z,11.50
2023-03-29T00:22:11.790Z,7.00
2023-03-29T00:27:20.058Z,10.70
2023-03-29T00:32:28.609Z,9.70
2023-03-29T00:37:38.295Z,10.50
2023-03-29T00:42:48.589Z,13.20
2023-03-29T00:48:00.337Z,12.40
2023-03-29T00:53:12.663Z,10.40
2023-03-29T00:58:26.622Z,12.90
2023-03-29T01:03:46.808Z,12.30
2023-03-29T01:08:58.426Z,13.90
2023-03-29T01:14:09.647Z,13.30
2023-03-29T01:19:21.502Z,12.90
2023-03-29T01:24:53.422Z,12.30
2023-03-29T01:30:05.478Z,11.70
2023-03-29T01:35:17.698Z,16.60
2023-03-29T01:40:27.419Z,14.70
2023-03-29T01:45:38.310Z,11.00
2023-03-29T01:50:50.982Z,12.00
2023-03-29T01:56:02.084Z,13.80
2023-03-29T02:01:14.068Z,11.30
2023-03-29T02:06:24.632Z,13.00
2023-03-29T02:11:32.336Z,12.60
2023-03-29T02:16:40.569Z,12.40
2023-03-29T02:21:55.263Z,11.00
2023-03-29T02:27:02.768Z,12.80
2023-03-29T02:32:17.562Z,15.70
2023-03-29T02:37:30.288Z,14.10
2023-03-29T02:46:26.142Z,18.00
2023-03-29T02:51:34.224Z,18.30
2023-03-29T02:56:47.237Z,13.80
2023-03-29T03:01:53.043Z,12.90
2023-03-29T03:06:57.333Z,13.70
2023-03-29T03:12:01.638Z,12.90
2023-03-29T03:17:06.432Z,13.20
2023-03-29T03:22:11.266Z,15.00
2023-03-29T03:27:16.512Z,21.40
2023-03-29T03:32:21.060Z,19.70
2023-03-29T03:37:25.727Z,23.20
2023-03-29T03:42:29.808Z,23.60
2023-03-29T03:47:34.316Z,19.20
2023-03-29T03:52:38.685Z,16.10
2023-03-29T03:57:43.432Z,13.50
2023-03-29T04:02:48.354Z,16.00
2023-03-29T04:07:53.843Z,15.50
2023-03-29T04:13:03.203Z,14.80
2023-03-29T04:18:07.597Z,14.50
2023-03-29T04:23:12.064Z,12.90
2023-03-29T04:28:16.773Z,15.90
2023-03-29T04:33:21.436Z,21.70
2023-03-29T04:38:26.301Z,23.00
2023-03-29T04:43:30.712Z,13.40
2023-03-29T04:48:37.119Z,16.10
2023-03-29T04:53:41.922Z,18.00
2023-03-29T04:58:46.238Z,17.70
2023-03-29T05:03:51.143Z,21.80
2023-03-29T05:08:55.287Z,24.10
2023-03-29T05:14:02.789Z,26.10
2023-03-29T05:24:10.574Z,14.70
2023-03-29T05:29:14.984Z,24.30
2023-03-29T05:34:20.984Z,18.00
2023-03-29T05:39:25.615Z,15.60
2023-03-29T05:44:29.653Z,15.20
2023-03-29T05:49:34.087Z,18.90
2023-03-29T05:54:38.211Z,22.70
2023-03-29T05:59:43.053Z,22.10
2023-03-29T06:04:48.375Z,17.60
2023-03-29T06:09:52.745Z,18.70
2023-03-29T06:14:57.993Z,18.00
2023-03-29T06:20:04.515Z,11.80
2023-03-29T06:25:11.133Z,18.40
2023-03-29T06:30:16.502Z,23.00
2023-03-29T06:35:20.701Z,18.30
2023-03-29T06:40:25.101Z,19.50
2023-03-29T06:45:31.692Z,20.20
2023-03-29T06:50:35.809Z,20.10
2023-03-29T06:55:40.859Z,22.80
2023-03-29T07:00:46.717Z,18.20
2023-03-29T07:05:51.664Z,15.50
2023-03-29T07:10:55.807Z,12.60
2023-03-29T07:16:00.325Z,17.20
2023-03-29T07:21:05.739Z,14.90
2023-03-29T07:26:12.225Z,12.80
2023-03-29T07:31:16.935Z,8.40
2023-03-29T07:36:21.403Z,12.10
2023-03-29T07:41:25.799Z,12.00
2023-03-29T07:46:29.813Z,11.20
2023-03-29T07:51:36.300Z,7.70
2023-03-29T07:56:40.966Z,5.30
2023-03-29T08:01:46.005Z,7.50
2023-03-29T08:06:50.341Z,8.50
2023-03-29T08:11:54.755Z,7.20
2023-03-29T08:16:59.058Z,6.50
2023-03-29T08:22:04.268Z,6.60
2023-03-29T08:27:09.609Z,5.50
2023-03-29T08:32:15.120Z,6.90
2023-03-29T08:37:19.917Z,6.10
2023-03-29T08:42:41.965Z,7.50
2023-03-29T08:47:54.548Z,7.30
2023-03-29T08:53:04.360Z,6.30
2023-03-29T08:58:13.509Z,4.40
2023-03-29T09:03:22.138Z,6.40
2023-03-29T09:08:27.207Z,3.20
2023-03-29T09:13:40.423Z,4.50
2023-03-29T09:18:53.749Z,6.50
2023-03-29T09:24:17.265Z,4.10
2023-03-29T09:29:41.427Z,4.60
2023-03-29T09:34:49.038Z,5.50
2023-03-29T09:39:55.611Z,6.30
2023-03-29T09:45:08.044Z,5.10
2023-03-29T09:50:30.257Z,6.70
2023-03-29T09:55:38.106Z,4.70
2023-03-29T10:00:43.149Z,4.80
2023-03-29T10:05:49.440Z,5.50
2023-03-29T10:10:53.779Z,6.70
2023-03-29T10:16:03.505Z,5.50
2023-03-29T10:21:11.750Z,4.40
2023-03-29T10:26:25.582Z,5.00
2023-03-29T10:31:32.453Z,6.90
2023-03-29T10:36:40.863Z,12.70
2023-03-29T10:46:20.067Z,7.50
2023-03-29T10:51:30.660Z,4.60
2023-03-29T10:56:41.672Z,3.90
2023-03-29T11:02:02.508Z,3.90
2023-03-29T11:07:31.703Z,4.80
2023-03-29T11:12:45.326Z,17.30
2023-03-29T11:18:04.131Z,6.00
2023-03-29T11:23:27.755Z,5.60
2023-03-29T11:28:42.925Z,3.90
2023-03-29T11:34:05.819Z,4.10
2023-03-29T11:39:25.359Z,3.70
2023-03-29T11:44:35.531Z,7.10
2023-03-29T11:49:47.747Z,5.20
2023-03-29T11:55:03.440Z,5.20
2023-03-29T12:00:19.321Z,4.70
2023-03-29T12:05:32.469Z,9.50
2023-03-29T12:10:43.636Z,5.00
2023-03-29T12:15:55.443Z,5.30
2023-03-29T12:21:06.149Z,4.90
2023-03-29T12:26:29.325Z,3.30
2023-03-29T12:31:45.392Z,3.00
2023-03-29T12:37:33.936Z,4.20
2023-03-29T12:42:53.148Z,5.80
2023-03-29T12:48:01.698Z,5.40
2023-03-29T12:53:19.994Z,5.00
2023-03-29T12:58:51.553Z,3.30
2023-03-29T13:04:20.332Z,4.80
2023-03-29T13:09:30.784Z,2.60
2023-03-29T13:14:42.876Z,3.50
2023-03-29T13:19:58.953Z,5.30
2023-03-29T13:25:22.043Z,4.70
2023-03-29T13:30:42.910Z,3.60
2023-03-29T13:35:58.214Z,4.60
2023-03-29T13:41:08.862Z,4.00
2023-03-29T13:46:26.327Z,6.70
2023-03-29T13:51:41.429Z,5.90
2023-03-29T13:57:00.026Z,5.60
2023-03-29T14:02:08.702Z,3.70
2023-03-29T14:07:28.456Z,4.00
2023-03-29T14:12:42.135Z,4.60
2023-03-29T14:17:50.773Z,5.00
2023-03-29T14:22:58.647Z,4.50
2023-03-29T14:28:20.101Z,7.40
2023-03-29T14:33:34.667Z,4.20
2023-03-29T14:38:45.918Z,4.30
2023-03-29T14:43:54.509Z,4.50
2023-03-29T14:49:02.703Z,5.00
2023-03-29T14:54:17.781Z,5.10
2023-03-29T15:07:46.350Z,5.60
2023-03-29T15:12:55.181Z,4.40
2023-03-29T15:18:04.462Z,5.30
2023-03-29T15:23:25.942Z,6.20
2023-03-29T15:28:35.834Z,6.10
2023-03-29T15:33:44.862Z,6.30
2023-03-29T15:38:52.376Z,4.30
2023-03-29T15:44:00.292Z,5.80
2023-03-29T15:49:07.692Z,4.50
2023-03-29T15:54:15.148Z,4.80
2023-03-29T15:59:23.131Z,6.20
2023-03-29T16:04:30.655Z,4.70
2023-03-29T16:09:38.323Z,7.10
2023-03-29T16:14:45.894Z,4.50
2023-03-29T16:19:53.540Z,5.10
2023-03-29T16:25:00.862Z,7.10
2023-03-29T16:30:11.531Z,7.20
2023-03-29T16:35:27.035Z,5.70
2023-03-29T16:40:34.729Z,4.90
2023-03-29T16:45:42.192Z,5.30
2023-03-29T16:50:50.420Z,6.20
2023-03-29T16:55:58.754Z,5.90
2023-03-29T17:01:12.329Z,6.40
2023-03-29T17:06:20.716Z,6.80
2023-03-29T17:11:29.043Z,7.50
2023-03-29T17:16:36.801Z,6.30
2023-03-29T17:21:44.718Z,5.10
2023-03-29T17:26:52.239Z,7.60
2023-03-29T17:31:59.855Z,9.30
2023-03-29T17:37:08.069Z,7.60
2023-03-29T17:42:16.206Z,6.70
2023-03-29T17:47:23.820Z,8.00
2023-03-29T17:52:31.283Z,8.90
2023-03-29T17:57:39.259Z,10.30
2023-03-29T18:02:47.227Z,9.80
2023-03-29T18:07:56.574Z,9.20
2023-03-29T18:13:03.975Z,9.50
2023-03-29T18:18:11.462Z,8.60
2023-03-29T18:23:18.771Z,7.20
2023-03-29T18:28:26.341Z,8.60
2023-03-29T18:33:35.467Z,8.10
2023-03-29T18:44:27.662Z,13.90
2023-03-29T18:49:37.002Z,10.80
2023-03-29T18:54:44.833Z,10.00
2023-03-29T18:59:53.772Z,10.10
2023-03-29T19:05:01.421Z,16.40
2023-03-29T19:10:10.943Z,11.80
2023-03-29T19:15:19.476Z,12.30
2023-03-29T19:20:27.580Z,11.30
2023-03-29T19:25:35.665Z,26.20
2023-03-29T19:30:43.572Z,16.90
2023-03-29T19:35:52.805Z,12.50
2023-03-29T19:41:00.823Z,12.70
2023-03-29T19:46:13.061Z,15.80
2023-03-29T19:51:20.797Z,16.70
2023-03-29T19:56:29.152Z,12.70
2023-03-29T20:01:39.673Z,10.50
2023-03-29T20:06:47.319Z,14.70
2023-03-29T20:11:55.074Z,21.90
2023-03-29T20:17:02.638Z,17.10
2023-03-29T20:22:10.567Z,22.60
2023-03-29T20:27:18.385Z,16.30
2023-03-29T20:32:25.918Z,17.50
2023-03-29T20:37:33.388Z,15.50
2023-03-29T20:42:40.767Z,15.90
2023-03-29T20:47:57.996Z,17.40
2023-03-29T20:53:06.630Z,14.70
2023-03-29T20:58:16.090Z,16.60
2023-03-29T21:03:24.756Z,19.50
2023-03-29T21:22:54.589Z,15.10
2023-03-29T21:28:03.847Z,17.30
2023-03-29T21:33:11.615Z,15.80
2023-03-29T21:38:19.534Z,15.90
2023-03-29T21:43:27.279Z,13.10
2023-03-29T21:48:35.324Z,15.00
2023-03-29T21:53:42.876Z,16.40
2023-03-29T21:58:50.508Z,15.30
2023-03-29T22:03:58.082Z,15.10
2023-03-29T22:09:06.388Z,13.70
2023-03-29T22:14:16.561Z,10.30
2023-03-29T22:19:24.016Z,14.70
2023-03-29T22:24:31.871Z,11.90
2023-03-29T22:29:39.154Z,13.90
2023-03-29T22:39:52.905Z,12.70
2023-03-29T22:45:01.018Z,14.50
2023-03-29T22:50:10.394Z,14.80
2023-03-29T22:55:18.552Z,12.20
2023-03-29T23:00:26.625Z,13.90
2023-03-29T23:05:34.266Z,13.20
2023-03-29T23:10:41.873Z,14.30
2023-03-29T23:15:51.865Z,14.20
2023-03-29T23:21:00.401Z,18.00
2023-03-29T23:26:10.610Z,13.60
2023-03-29T23:31:19.920Z,15.80
2023-03-29T23:36:31.268Z,21.70
2023-03-29T23:41:40.539Z,20.30
2023-03-29T23:46:48.107Z,19.10
2023-03-29T23:51:56.159Z,22.50
2023-03-29T23:57:03.688Z,16.60
